Airfield :
LOGIN :

Register | Disclaimer

   EN    FR    IT 

 










Legend :    VFR   Marginal VFR   IFR   Intensive IFR   Very Intensive IFR
Visi :
Ceiling :
>= 8 km
>= 3000ft
5 to 8 km
1000 to 3000 ft
1500m to 5 km
500 to 1000 ft
800 to 1500m
200 to 500 ft
< 800m
< 200 ft
Symbols :   Thunderstorms  Fog  Heavy snow  Heavy precipitations  Wind > 20 kt
SIGMETs :     Misc.  Thunderstorms  Icing  Turbulence  Mountain Waves  Volcanic Ashes






- Airport Elevation : 1411 ft
- IATA code : GVA


LSGG - Genève Cointrin

CURRENT METAR :
  • 100520Z 01002KT 9999 FEW050 M00/M03 Q1027 NOSIG

EXPIRED METARs :
  • 100450Z VRB01KT 9999 FEW050 01/M02 Q1026 NOSIG
  • 100420Z AUTO VRB01KT 9999 FEW052 03/M03 Q1026 NOSIG
  • 100350Z AUTO 01005KT 320V040 CAVOK 03/M03 Q1025 NOSIG
  • 100320Z AUTO 05005KT CAVOK 04/M02 Q1025 NOSIG
  • 100250Z AUTO 01006KT 9999 NCD 04/M02 Q1025 NOSIG

TAF TAF LSGG
Valid from the 10 at 03:00 until the 11 at 09:00 UTC


100225Z 1003/1109 VRB03KT 9999 FEW030 TX06/1015Z TN02/1006Z TNM02/1106Z
PROB30
TEMPO 1004/1008 MIFG
BECMG 1008/1011 04008KT CAVOK
BECMG 1017/1019 VRB03KT
BECMG 1106/1109 9999 BKN080
ATIS : +41 22 417 40 81



MET'MAP, your aeronautical weather chart ! - Copyright ORBIFLY December 2007 - Disclaimer

ORBIFLY MET'MAP TEAM :

Programming & Development : Alexandra Zaïnal
Concept & original design : Baudouin d'Aumeries
Assistance for programming : Marc-Olivier Méhu
Technical & hardware support : Manuel Goepfert

Contact : metmap@orbifly.com




SOURCES & CREDITS :

   NOAA